Time;durP1;ratioP1;P1;durP2;ratioP2;P2;SDS_P1;SDS_P2;PMS_P1;PMS_P2;Temp;Humidity;BMP_temperature;BMP_pressure;BME280_temperature;BME280_humidity;BME280_pressure;Samples;Min_cycle;Max_cycle;Signal;HPM_P1;HPM_P2
2022/09/29 00:00:49;;;;;;;3.40;3.20;;;23.40;70.00;;;;;;5094249;28;20444;-84
2022/09/29 00:03:16;;;;;;;2.77;2.57;;;23.40;70.00;;;;;;5093999;28;20443;-84
2022/09/29 00:05:47;;;;;;;2.93;2.73;;;23.30;69.80;;;;;;5093861;28;20781;-87
2022/09/29 00:08:16;;;;;;;2.90;2.70;;;23.40;69.90;;;;;;5093841;28;20530;-84
2022/09/29 00:10:44;;;;;;;2.30;2.20;;;23.30;69.70;;;;;;5093753;28;20440;-87
2022/09/29 00:13:11;;;;;;;2.50;2.33;;;23.30;69.70;;;;;;5093535;28;20448;-87
2022/09/29 00:15:39;;;;;;;2.57;2.40;;;23.30;69.60;;;;;;5093470;28;20484;-85
2022/09/29 00:18:05;;;;;;;2.30;2.20;;;23.30;69.60;;;;;;5093608;28;20460;-84
2022/09/29 00:20:32;;;;;;;2.90;2.70;;;23.30;69.60;;;;;;5093865;28;20527;-84
2022/09/29 00:22:59;;;;;;;2.77;2.57;;;23.30;69.50;;;;;;5093751;28;20443;-85
2022/09/29 00:25:26;;;;;;;2.47;2.27;;;23.30;69.50;;;;;;5093445;28;20450;-84
2022/09/29 00:27:54;;;;;;;2.53;2.33;;;23.30;69.50;;;;;;5094113;28;20443;-85
2022/09/29 00:30:21;;;;;;;2.33;2.23;;;23.30;69.50;;;;;;5093577;28;20442;-84
2022/09/29 00:32:48;;;;;;;2.40;2.20;;;23.30;69.40;;;;;;5093692;28;20436;-86
2022/09/29 00:35:17;;;;;;;2.03;1.93;;;23.30;69.50;;;;;;5098190;28;20490;-85
2022/09/29 00:37:43;;;;;;;2.10;2.00;;;23.30;69.40;;;;;;5100286;28;20983;-87
2022/09/29 00:40:11;;;;;;;2.50;2.30;;;23.30;69.30;;;;;;5099995;28;20942;-85
2022/09/29 00:42:38;;;;;;;2.37;2.17;;;23.30;69.30;;;;;;5100339;28;20447;-85
2022/09/29 00:45:15;;;;;;;2.40;2.20;;;23.30;69.30;;;;;;5100079;28;20440;-85
2022/09/29 00:47:45;;;;;;;2.07;1.97;;;23.30;69.20;;;;;;5100054;28;20460;-85
2022/09/29 00:50:16;;;;;;;2.80;2.60;;;23.30;69.20;;;;;;5099749;28;20923;-86
2022/09/29 00:52:46;;;;;;;2.17;2.07;;;23.20;69.10;;;;;;5099878;28;20434;-84
2022/09/29 00:55:18;;;;;;;2.10;2.00;;;23.30;69.20;;;;;;5099559;28;20483;-85
2022/09/29 00:57:48;;;;;;;1.90;1.80;;;23.30;69.20;;;;;;5099801;28;20466;-85
2022/09/29 01:00:17;;;;;;;2.20;2.00;;;23.30;69.10;;;;;;5099772;28;20432;-86
2022/09/29 01:02:48;;;;;;;2.07;1.97;;;23.20;69.00;;;;;;5099697;28;20440;-84
2022/09/29 01:05:18;;;;;;;2.10;2.00;;;23.20;69.00;;;;;;5099107;28;20937;-84
2022/09/29 01:07:45;;;;;;;2.43;2.23;;;23.40;69.10;;;;;;5099063;28;20846;-84
2022/09/29 01:10:15;;;;;;;2.07;1.97;;;23.20;68.90;;;;;;5099604;28;20443;-84
2022/09/29 01:12:43;;;;;;;2.30;2.10;;;23.50;69.30;;;;;;5099882;28;20836;-85
2022/09/29 01:15:11;;;;;;;2.00;1.90;;;23.20;68.90;;;;;;5099451;28;20488;-84
2022/09/29 01:17:39;;;;;;;2.20;2.10;;;23.20;68.80;;;;;;5099530;28;20847;-85
2022/09/29 01:20:11;;;;;;;2.50;2.30;;;23.40;69.00;;;;;;5099513;28;20436;-85
2022/09/29 01:23:08;;;;;;;1.80;1.70;;;23.20;68.80;;;;;;5099674;28;20440;-84
2022/09/29 01:26:01;;;;;;;2.00;1.90;;;23.20;68.70;;;;;;5099341;28;20466;-84
2022/09/29 01:28:52;;;;;;;1.70;1.60;;;23.20;68.70;;;;;;5099505;28;20440;-84
2022/09/29 01:31:29;;;;;;;1.70;1.60;;;23.20;68.70;;;;;;5099573;28;20436;-85
2022/09/29 01:34:05;;;;;;;2.13;2.03;;;23.20;68.70;;;;;;5099504;28;20435;-85
2022/09/29 01:36:41;;;;;;;1.90;1.80;;;23.20;68.70;;;;;;5099531;28;20449;-84
2022/09/29 01:39:15;;;;;;;1.90;1.80;;;23.20;68.70;;;;;;5099451;28;20787;-84
2022/09/29 01:41:49;;;;;;;1.77;1.67;;;23.20;68.60;;;;;;5099431;28;20435;-85
2022/09/29 01:44:21;;;;;;;1.87;1.77;;;23.20;68.60;;;;;;5099286;28;20439;-85
2022/09/29 01:46:53;;;;;;;1.80;1.70;;;23.30;68.70;;;;;;5096298;28;20918;-85
2022/09/29 01:49:23;;;;;;;1.70;1.60;;;23.20;68.50;;;;;;5096001;28;20432;-84
2022/09/29 01:51:54;;;;;;;1.60;1.50;;;23.20;68.50;;;;;;5096073;28;20436;-84
2022/09/29 01:54:25;;;;;;;2.00;1.90;;;23.20;68.50;;;;;;5095861;28;20446;-85
2022/09/29 01:56:56;;;;;;;1.80;1.70;;;23.20;68.50;;;;;;5096088;28;20497;-84
2022/09/29 01:59:28;;;;;;;2.07;1.97;;;23.20;68.50;;;;;;5096044;28;20497;-85
2022/09/29 02:02:02;;;;;;;1.53;1.43;;;23.20;69.30;;;;;;5095914;28;20922;-85
2022/09/29 02:04:33;;;;;;;1.80;1.70;;;23.10;68.30;;;;;;5095800;28;20444;-85
2022/09/29 02:07:06;;;;;;;1.90;1.80;;;23.20;68.40;;;;;;5095629;28;20444;-84
2022/09/29 02:09:38;;;;;;;1.80;1.70;;;23.10;68.30;;;;;;5095887;28;20536;-87
2022/09/29 02:12:07;;;;;;;1.93;1.83;;;23.10;69.10;;;;;;5096088;28;20454;-85
2022/09/29 02:14:38;;;;;;;1.60;1.50;;;23.20;68.30;;;;;;5095773;28;20444;-84
2022/09/29 02:17:11;;;;;;;2.13;2.03;;;23.10;68.60;;;;;;5095899;28;20470;-84
2022/09/29 02:19:42;;;;;;;1.90;1.80;;;23.10;68.10;;;;;;5096085;28;20440;-84
2022/09/29 02:22:09;;;;;;;1.40;1.30;;;23.30;68.30;;;;;;5095814;28;20951;-86
2022/09/29 02:24:36;;;;;;;1.90;1.80;;;23.10;68.10;;;;;;5095241;28;20440;-84
2022/09/29 02:27:04;;;;;;;1.70;1.60;;;23.10;68.00;;;;;;5095938;28;20447;-84
2022/09/29 02:29:32;;;;;;;1.70;1.60;;;23.10;68.00;;;;;;5095539;28;20544;-84
2022/09/29 02:32:01;;;;;;;1.63;1.53;;;23.10;68.00;;;;;;5095551;28;20941;-84
2022/09/29 02:34:31;;;;;;;1.40;1.30;;;23.10;67.90;;;;;;5095518;28;20475;-84
2022/09/29 02:37:10;;;;;;;1.83;1.73;;;23.10;67.90;;;;;;5095531;28;20443;-84
2022/09/29 02:39:47;;;;;;;2.10;2.00;;;23.10;67.90;;;;;;5095461;28;20443;-86
2022/09/29 02:42:23;;;;;;;1.67;1.57;;;23.10;67.90;;;;;;5095492;28;20446;-85
2022/09/29 02:45:15;;;;;;;1.77;1.67;;;23.20;68.10;;;;;;5095590;28;20438;-84
2022/09/29 02:47:56;;;;;;;1.40;1.30;;;23.10;67.90;;;;;;5095088;28;20464;-85
2022/09/29 02:50:56;;;;;;;1.70;1.60;;;23.10;67.90;;;;;;5095295;28;20446;-84
2022/09/29 02:53:37;;;;;;;1.63;1.53;;;23.10;67.80;;;;;;5095180;28;20436;-84
2022/09/29 02:56:12;;;;;;;1.93;1.83;;;23.20;68.00;;;;;;5094901;28;20483;-84
2022/09/29 02:58:45;;;;;;;1.50;1.40;;;23.10;67.90;;;;;;5094407;28;20444;-85
2022/09/29 03:01:13;;;;;;;1.97;1.40;;;23.00;67.70;;;;;;5095149;28;20526;-84
2022/09/29 03:03:39;;;;;;;1.67;1.57;;;23.00;67.70;;;;;;5095080;28;20447;-84
2022/09/29 03:06:08;;;;;;;1.67;1.57;;;23.00;67.60;;;;;;5095026;28;20438;-84
2022/09/29 03:08:35;;;;;;;1.60;1.50;;;23.00;67.60;;;;;;5094597;28;20478;-84
2022/09/29 03:11:02;;;;;;;1.87;1.77;;;23.00;67.70;;;;;;5094716;28;20451;-86
2022/09/29 03:13:28;;;;;;;1.87;1.77;;;23.00;67.60;;;;;;5094766;28;20817;-84
2022/09/29 03:15:55;;;;;;;1.40;1.30;;;23.00;67.60;;;;;;5094591;28;20491;-84
2022/09/29 03:18:23;;;;;;;1.67;1.57;;;23.00;67.90;;;;;;5094560;28;20471;-84
2022/09/29 03:20:50;;;;;;;1.80;1.70;;;23.00;67.50;;;;;;5094437;28;20448;-85
2022/09/29 03:23:18;;;;;;;1.47;1.37;;;23.00;67.60;;;;;;5094496;28;20443;-85
2022/09/29 03:25:44;;;;;;;1.80;1.70;;;23.00;67.50;;;;;;5094609;28;20960;-85
2022/09/29 03:28:11;;;;;;;1.47;1.37;;;23.00;67.50;;;;;;5094573;28;20462;-85
2022/09/29 03:30:38;;;;;;;1.60;1.50;;;23.00;67.40;;;;;;5094400;28;20427;-84
2022/09/29 03:33:05;;;;;;;1.60;1.50;;;23.00;67.40;;;;;;5094525;28;20442;-84
2022/09/29 03:35:32;;;;;;;1.90;1.80;;;23.00;67.40;;;;;;5094433;28;20484;-85
2022/09/29 03:37:59;;;;;;;2.27;1.80;;;23.00;67.40;;;;;;5094471;28;20492;-84
2022/09/29 03:40:28;;;;;;;1.83;1.73;;;23.00;67.30;;;;;;5094123;28;20923;-85
2022/09/29 03:42:54;;;;;;;1.70;1.60;;;23.00;67.30;;;;;;5094329;28;20947;-85
2022/09/29 03:45:21;;;;;;;1.63;1.53;;;23.00;67.30;;;;;;5094075;28;20439;-84
2022/09/29 03:47:48;;;;;;;1.53;1.43;;;23.00;67.30;;;;;;5094080;28;20463;-84
2022/09/29 03:50:15;;;;;;;1.53;1.43;;;23.00;67.30;;;;;;5093965;28;20443;-84
2022/09/29 03:52:42;;;;;;;1.47;1.37;;;23.00;67.30;;;;;;5093994;28;20436;-84
2022/09/29 03:55:09;;;;;;;1.70;1.60;;;23.00;67.20;;;;;;5094434;28;20479;-85
2022/09/29 03:57:37;;;;;;;2.20;2.00;;;23.00;67.20;;;;;;5093782;28;20810;-85
2022/09/29 04:00:04;;;;;;;1.80;1.70;;;23.00;67.20;;;;;;5093632;28;20448;-85
2022/09/29 04:02:33;;;;;;;1.50;1.40;;;23.00;67.20;;;;;;5093802;28;20523;-84
2022/09/29 04:05:00;;;;;;;1.43;1.33;;;23.00;67.20;;;;;;5093906;28;20547;-84
2022/09/29 04:07:26;;;;;;;1.93;1.83;;;22.90;67.10;;;;;;5093632;28;20443;-84
2022/09/29 04:09:53;;;;;;;1.60;1.50;;;22.90;67.10;;;;;;5093249;28;20472;-85
2022/09/29 04:12:20;;;;;;;1.83;1.30;;;22.90;67.10;;;;;;5093703;28;20436;-84
2022/09/29 04:14:48;;;;;;;1.37;1.27;;;22.90;67.10;;;;;;5093830;28;20447;-84
2022/09/29 04:17:15;;;;;;;1.27;1.17;;;23.00;67.20;;;;;;5093396;28;20498;-84
2022/09/29 04:19:42;;;;;;;1.47;1.37;;;22.90;67.00;;;;;;5093382;28;20440;-84
2022/09/29 04:22:10;;;;;;;1.73;1.63;;;22.90;67.00;;;;;;5093624;28;20820;-85
2022/09/29 04:24:37;;;;;;;1.43;1.33;;;22.90;67.80;;;;;;5093675;28;20452;-86
2022/09/29 04:27:04;;;;;;;1.50;1.40;;;22.90;66.90;;;;;;5094172;28;20448;-84
2022/09/29 04:29:31;;;;;;;1.60;1.50;;;22.90;66.90;;;;;;5093615;28;20458;-86
2022/09/29 04:31:59;;;;;;;1.80;1.70;;;22.90;67.00;;;;;;5093230;28;20943;-84
2022/09/29 04:34:25;;;;;;;1.53;1.43;;;22.90;66.90;;;;;;5093473;28;20470;-85
2022/09/29 04:36:52;;;;;;;1.50;1.40;;;22.90;66.80;;;;;;5093169;28;20487;-84
2022/09/29 04:39:19;;;;;;;1.50;1.40;;;22.90;66.80;;;;;;5093883;28;20432;-84
2022/09/29 04:41:46;;;;;;;1.70;1.50;;;22.90;66.80;;;;;;5093415;28;20436;-84
2022/09/29 04:44:13;;;;;;;1.43;1.33;;;22.90;66.80;;;;;;5093250;28;20790;-84
2022/09/29 04:46:39;;;;;;;1.37;1.27;;;22.90;66.80;;;;;;5093152;28;20483;-84
2022/09/29 04:49:08;;;;;;;1.50;1.40;;;22.90;66.80;;;;;;5094768;28;20972;-83
2022/09/29 04:51:35;;;;;;;1.30;1.20;;;22.90;66.80;;;;;;5113875;28;20439;-83
2022/09/29 04:54:02;;;;;;;1.40;1.30;;;22.90;66.70;;;;;;5113703;28;20435;-84
2022/09/29 04:56:30;;;;;;;1.60;1.50;;;22.90;66.60;;;;;;5113673;28;20478;-84
2022/09/29 04:58:57;;;;;;;1.60;1.50;;;22.90;66.60;;;;;;5113561;28;20439;-84
2022/09/29 05:01:24;;;;;;;1.70;1.60;;;22.90;66.60;;;;;;5113565;28;20435;-84
2022/09/29 05:03:51;;;;;;;1.33;1.23;;;22.90;66.60;;;;;;5113453;28;20435;-84
2022/09/29 05:06:19;;;;;;;1.40;1.30;;;22.90;66.60;;;;;;5113592;28;20449;-84
2022/09/29 05:08:46;;;;;;;1.50;1.40;;;22.90;66.60;;;;;;5113339;28;20462;-84
2022/09/29 05:11:13;;;;;;;1.37;1.27;;;22.90;66.60;;;;;;5113741;28;20804;-84
2022/09/29 05:13:41;;;;;;;1.60;1.50;;;22.80;66.40;;;;;;5115341;28;20432;-86
2022/09/29 05:16:07;;;;;;;1.40;1.30;;;22.80;66.50;;;;;;5133899;28;20485;-85
2022/09/29 05:18:34;;;;;;;1.50;1.40;;;22.80;66.40;;;;;;5123443;28;20434;-83
2022/09/29 05:21:05;;;;;;;1.57;1.27;;;22.80;66.40;;;;;;5128379;27;20458;-84
2022/09/29 05:23:34;;;;;;;1.43;1.33;;;22.80;66.40;;;;;;5124910;27;20442;-83
2022/09/29 05:26:05;;;;;;;1.60;1.50;;;22.80;66.40;;;;;;5133162;27;20445;-83
2022/09/29 05:28:32;;;;;;;1.50;1.40;;;22.80;66.40;;;;;;5125434;27;20921;-83
2022/09/29 05:31:04;;;;;;;1.67;1.57;;;22.80;66.40;;;;;;5128595;27;20433;-83
2022/09/29 05:33:31;;;;;;;1.53;1.43;;;22.80;66.40;;;;;;5132605;27;20461;-83
2022/09/29 05:35:57;;;;;;;1.40;1.30;;;22.80;66.40;;;;;;5124461;27;20469;-83
2022/09/29 05:38:24;;;;;;;1.50;1.40;;;22.80;66.30;;;;;;5136185;27;20445;-83
2022/09/29 05:40:53;;;;;;;1.37;1.27;;;22.80;66.30;;;;;;5127882;27;20795;-84
2022/09/29 05:43:20;;;;;;;1.50;1.40;;;22.80;66.30;;;;;;5122170;27;20431;-84
2022/09/29 05:45:47;;;;;;;1.67;1.57;;;22.80;66.30;;;;;;5116827;28;20449;-86
2022/09/29 05:48:14;;;;;;;1.80;1.60;;;22.80;66.20;;;;;;5116615;28;20466;-83
2022/09/29 05:50:42;;;;;;;1.50;1.40;;;22.80;66.20;;;;;;5117022;28;20438;-84
2022/09/29 05:53:09;;;;;;;1.37;1.27;;;23.00;66.40;;;;;;5116670;28;20450;-87
2022/09/29 05:55:36;;;;;;;1.60;1.50;;;22.80;66.20;;;;;;5116707;28;20439;-86
2022/09/29 05:58:05;;;;;;;2.63;1.40;;;22.80;66.00;;;;;;5116678;28;20449;-86
2022/09/29 06:00:33;;;;;;;1.80;1.70;;;22.80;65.70;;;;;;5116385;28;20438;-86
2022/09/29 06:03:00;;;;;;;1.67;1.57;;;22.80;65.40;;;;;;5116730;28;20442;-84
2022/09/29 06:05:28;;;;;;;1.70;1.60;;;22.70;65.20;;;;;;5116111;28;20435;-83
2022/09/29 06:07:55;;;;;;;4.40;1.47;;;22.70;65.60;;;;;;5115893;28;20439;-84
2022/09/29 06:10:22;;;;;;;2.80;1.60;;;22.80;66.20;;;;;;5132538;27;20491;-83
2022/09/29 06:12:49;;;;;;;2.10;1.40;;;22.80;66.10;;;;;;5136311;27;20449;-84
2022/09/29 06:15:17;;;;;;;1.93;1.57;;;22.80;66.00;;;;;;5136376;27;20446;-84
2022/09/29 06:17:44;;;;;;;1.60;1.50;;;22.80;66.00;;;;;;5136012;27;20496;-84
2022/09/29 06:20:11;;;;;;;1.90;1.77;;;22.80;65.90;;;;;;5135830;27;20445;-84
2022/09/29 06:22:37;;;;;;;1.90;1.80;;;22.90;65.90;;;;;;5135717;27;20487;-84
2022/09/29 06:25:05;;;;;;;3.00;1.97;;;22.90;65.90;;;;;;5135837;27;20434;-84
2022/09/29 06:27:32;;;;;;;1.87;1.77;;;22.80;65.80;;;;;;5135745;27;20442;-84
2022/09/29 06:29:59;;;;;;;2.30;1.80;;;22.80;65.90;;;;;;5135601;27;20449;-83
2022/09/29 06:32:27;;;;;;;1.60;1.50;;;22.90;66.20;;;;;;5134956;27;20450;-84
2022/09/29 06:37:40;;;;;;;1.60;1.50;;;22.80;66.30;;;;;;5136476;27;20488;-83
2022/09/29 06:40:08;;;;;;;1.70;1.60;;;22.80;66.30;;;;;;5136531;27;20451;-84
2022/09/29 06:42:35;;;;;;;1.47;1.37;;;22.90;66.40;;;;;;5136526;27;20445;-83
2022/09/29 06:45:02;;;;;;;1.70;1.60;;;22.80;66.40;;;;;;5136152;27;20442;-83
2022/09/29 06:47:30;;;;;;;1.80;1.70;;;22.80;66.50;;;;;;5136242;27;20454;-84
2022/09/29 06:50:00;;;;;;;2.47;1.47;;;22.90;66.50;;;;;;5136239;27;20434;-83
2022/09/29 06:52:27;;;;;;;1.63;1.53;;;22.90;66.50;;;;;;5136222;27;20483;-84
2022/09/29 06:54:54;;;;;;;2.23;1.77;;;23.00;66.50;;;;;;5136131;27;20442;-84
2022/09/29 06:57:21;;;;;;;1.73;1.57;;;23.00;66.30;;;;;;5135937;27;20478;-83
2022/09/29 06:59:47;;;;;;;2.00;1.90;;;23.00;66.40;;;;;;5134290;27;20808;-83
2022/09/29 07:02:14;;;;;;;2.00;1.90;;;23.00;66.30;;;;;;5126100;27;21321;-83
2022/09/29 07:04:42;;;;;;;3.10;1.93;;;23.00;66.20;;;;;;5129221;27;20439;-83
2022/09/29 07:07:09;;;;;;;1.90;1.80;;;23.00;66.30;;;;;;5116819;28;20439;-84
2022/09/29 07:09:36;;;;;;;2.00;1.90;;;23.00;66.30;;;;;;5100490;28;20471;-84
2022/09/29 07:12:04;;;;;;;2.77;2.20;;;23.00;66.30;;;;;;5094789;28;20444;-84
2022/09/29 07:14:31;;;;;;;2.30;1.80;;;23.00;66.40;;;;;;5096131;28;20470;-84
2022/09/29 07:16:59;;;;;;;2.13;2.03;;;23.00;66.40;;;;;;5093925;28;20488;-83
2022/09/29 07:19:26;;;;;;;2.10;2.00;;;23.00;66.40;;;;;;5094569;28;20544;-83
2022/09/29 07:21:54;;;;;;;2.00;1.90;;;23.00;66.40;;;;;;5094830;28;20436;-83
2022/09/29 07:24:22;;;;;;;2.03;1.93;;;23.00;66.40;;;;;;5108282;28;20437;-84
2022/09/29 07:26:49;;;;;;;2.17;1.97;;;23.00;66.30;;;;;;5115216;28;20840;-83
2022/09/29 07:29:16;;;;;;;2.00;1.90;;;23.00;66.30;;;;;;5115217;28;20443;-84
2022/09/29 07:31:44;;;;;;;2.33;2.13;;;23.10;66.40;;;;;;5114806;28;20477;-83
2022/09/29 07:34:15;;;;;;;2.13;2.03;;;23.10;66.40;;;;;;5115806;28;20443;-85
2022/09/29 07:36:42;;;;;;;2.67;2.47;;;23.10;66.40;;;;;;5116408;28;20475;-83
2022/09/29 07:39:10;;;;;;;1.87;1.77;;;23.10;66.40;;;;;;5114144;28;20809;-83
2022/09/29 07:41:37;;;;;;;2.10;1.90;;;23.10;66.50;;;;;;5114354;28;20443;-82
2022/09/29 07:44:05;;;;;;;3.97;2.40;;;23.10;66.60;;;;;;5113897;28;20450;-87
2022/09/29 07:46:32;;;;;;;3.30;2.40;;;23.10;66.60;;;;;;5114289;28;20463;-94
2022/09/29 07:48:59;;;;;;;1.80;1.70;;;23.10;66.50;;;;;;5121089;28;20990;-95
2022/09/29 07:51:26;;;;;;;2.50;2.00;;;23.30;66.60;;;;;;5116144;28;20431;-93
2022/09/29 07:53:53;;;;;;;2.10;1.90;;;23.10;66.40;;;;;;5115639;28;20443;-92
2022/09/29 07:56:23;;;;;;;2.33;2.03;;;23.10;66.20;;;;;;5112961;28;20447;-89
2022/09/29 07:58:53;;;;;;;2.50;2.27;;;23.30;66.30;;;;;;5122730;28;20461;-93
2022/09/29 08:01:21;;;;;;;2.33;1.83;;;23.20;66.00;;;;;;5132148;28;20461;-90
2022/09/29 08:04:05;;;;;;;2.30;2.10;;;23.20;66.00;;;;;;5125588;28;20526;-89
2022/09/29 08:06:33;;;;;;;2.10;1.90;;;23.20;66.20;;;;;;5119957;28;20439;-90
2022/09/29 08:09:01;;;;;;;1.80;1.70;;;23.20;66.40;;;;;;5120101;28;20467;-96
2022/09/29 08:11:29;;;;;;;1.77;1.67;;;23.20;66.40;;;;;;5128807;28;20454;-91
2022/09/29 08:13:56;;;;;;;2.23;2.03;;;23.20;66.50;;;;;;5120502;28;20526;-93
2022/09/29 08:19:38;;;;;;;1.70;1.60;;;23.30;66.60;;;;;;5337180;22;20475;-95
2022/09/29 08:22:05;;;;;;;2.43;2.23;;;23.40;66.60;;;;;;5116961;28;20881;-90
2022/09/29 08:24:34;;;;;;;2.20;1.70;;;23.40;66.80;;;;;;5115592;28;20465;-94
2022/09/29 08:27:05;;;;;;;2.23;2.03;;;23.50;66.80;;;;;;5106623;28;20531;-87
2022/09/29 08:29:33;;;;;;;1.70;1.60;;;23.50;66.70;;;;;;5096152;28;20431;-93
2022/09/29 08:31:59;;;;;;;2.03;1.83;;;23.50;66.80;;;;;;5097388;28;20450;-88
2022/09/29 08:34:26;;;;;;;1.93;1.80;;;23.50;66.70;;;;;;5093402;28;20440;-88
2022/09/29 08:36:55;;;;;;;1.83;1.60;;;23.60;66.90;;;;;;5093468;28;20483;-89
2022/09/29 08:39:22;;;;;;;1.87;1.60;;;23.60;66.90;;;;;;5094007;28;20486;-94
2022/09/29 08:41:52;;;;;;;1.63;1.53;;;23.70;67.00;;;;;;5096768;28;20468;-90
2022/09/29 08:44:30;;;;;;;1.80;1.67;;;23.70;67.10;;;;;;5093585;28;20442;-92
2022/09/29 08:47:02;;;;;;;1.70;1.50;;;23.80;67.10;;;;;;5094597;28;20459;-90
2022/09/29 08:49:35;;;;;;;1.50;1.40;;;23.80;67.20;;;;;;5094126;28;20432;-88
2022/09/29 08:52:07;;;;;;;1.60;1.50;;;23.80;67.20;;;;;;5095387;28;20438;-94
2022/09/29 08:54:36;;;;;;;1.60;1.50;;;23.80;67.20;;;;;;5096147;28;20424;-93
2022/09/29 08:57:05;;;;;;;2.23;1.50;;;24.00;67.50;;;;;;5098704;28;20491;-95
2022/09/29 08:59:33;;;;;;;2.30;2.10;;;23.90;67.30;;;;;;5101003;28;21019;-92
2022/09/29 09:02:28;;;;;;;1.73;1.63;;;23.90;67.30;;;;;;5097668;28;20447;-87
2022/09/29 09:05:12;;;;;;;2.00;1.60;;;24.00;67.30;;;;;;5097563;28;20444;-87
2022/09/29 09:07:49;;;;;;;1.93;1.50;;;24.00;67.40;;;;;;5097199;28;20435;-86
2022/09/29 09:10:27;;;;;;;2.17;1.50;;;24.00;67.40;;;;;;5097477;28;20443;-88
2022/09/29 09:13:14;;;;;;;1.80;1.70;;;24.00;67.40;;;;;;5096964;28;20447;-87
2022/09/29 09:15:54;;;;;;;1.60;1.50;;;24.10;67.40;;;;;;5097306;28;20467;-93
2022/09/29 09:18:54;;;;;;;1.90;1.50;;;24.10;67.40;;;;;;5096867;28;20534;-87
2022/09/29 09:21:32;;;;;;;1.50;1.30;;;24.10;67.30;;;;;;5078509;28;20448;-87
2022/09/29 09:24:11;;;;;;;4.60;1.70;;;24.10;67.30;;;;;;5096199;28;20443;-87
2022/09/29 09:26:42;;;;;;;2.80;1.83;;;24.10;66.90;;;;;;5096507;28;20439;-87
2022/09/29 09:29:16;;;;;;;3.20;1.50;;;24.10;66.70;;;;;;5096094;28;20440;-87
2022/09/29 09:31:50;;;;;;;5.87;1.83;;;24.10;66.60;;;;;;5096872;28;20438;-87
2022/09/29 09:34:21;;;;;;;3.77;1.93;;;24.10;66.60;;;;;;5096586;28;20442;-88
2022/09/29 09:36:54;;;;;;;2.67;2.10;;;24.20;65.70;;;;;;5096460;28;20438;-88
2022/09/29 09:39:26;;;;;;;2.23;2.07;;;24.10;62.90;;;;;;5097309;28;20523;-87
2022/09/29 09:41:56;;;;;;;2.50;2.20;;;24.00;61.10;;;;;;5096506;28;20432;-88
2022/09/29 09:44:28;;;;;;;2.50;2.30;;;23.90;59.60;;;;;;5096324;28;20459;-86
2022/09/29 09:47:00;;;;;;;1.90;1.80;;;23.90;59.50;;;;;;5096564;28;20472;-85
2022/09/29 09:49:31;;;;;;;2.67;1.70;;;23.90;60.10;;;;;;5096733;28;20864;-87
2022/09/29 09:52:03;;;;;;;5.50;1.30;;;23.90;62.10;;;;;;5096459;28;20443;-86
2022/09/29 09:54:33;;;;;;;1.40;1.30;;;24.00;63.50;;;;;;5096621;28;20420;-89
2022/09/29 09:57:13;;;;;;;2.13;1.17;;;24.00;65.10;;;;;;5096179;28;20546;-86
2022/09/29 09:59:52;;;;;;;1.47;1.37;;;24.00;64.70;;;;;;5096247;28;20440;-86
2022/09/29 10:02:23;;;;;;;1.80;1.47;;;24.00;65.00;;;;;;5096110;28;20436;-86
2022/09/29 10:04:51;;;;;;;1.20;1.10;;;24.00;66.00;;;;;;5096208;28;20450;-86
2022/09/29 10:07:20;;;;;;;1.73;1.20;;;24.00;65.30;;;;;;5095105;28;20440;-87
2022/09/29 10:09:47;;;;;;;1.77;1.00;;;24.00;65.40;;;;;;5096055;28;20444;-87
2022/09/29 10:12:16;;;;;;;1.60;1.17;;;24.10;65.50;;;;;;5096018;28;20454;-86
2022/09/29 10:14:47;;;;;;;1.10;1.00;;;24.10;65.50;;;;;;5095603;28;20440;-85
2022/09/29 10:17:17;;;;;;;1.73;1.33;;;24.10;65.70;;;;;;5095831;28;20490;-87
2022/09/29 10:19:57;;;;;;;1.40;1.30;;;24.10;65.80;;;;;;5095679;28;20479;-87
2022/09/29 10:22:25;;;;;;;1.77;1.13;;;24.10;65.10;;;;;;5096031;28;20957;-86
2022/09/29 10:24:55;;;;;;;1.10;1.00;;;24.10;65.30;;;;;;5095992;28;20436;-87
2022/09/29 10:27:25;;;;;;;1.00;0.90;;;24.10;65.40;;;;;;5095892;28;20447;-87
2022/09/29 10:29:53;;;;;;;1.30;1.20;;;24.20;65.50;;;;;;5095812;28;20501;-90
2022/09/29 10:32:35;;;;;;;1.13;1.03;;;24.30;65.70;;;;;;5099179;28;20452;-92
2022/09/29 10:35:07;;;;;;;1.20;1.00;;;24.40;65.80;;;;;;5095898;28;20922;-91
2022/09/29 10:37:41;;;;;;;1.70;1.60;;;24.40;65.90;;;;;;5099646;28;20501;-93
2022/09/29 10:40:17;;;;;;;4.63;1.17;;;24.50;66.10;;;;;;5107117;28;20451;-95
2022/09/29 10:42:47;;;;;;;2.30;1.00;;;24.50;66.00;;;;;;5112166;28;20493;-89
2022/09/29 10:45:16;;;;;;;1.37;0.90;;;24.50;66.10;;;;;;5108170;28;20471;-91
2022/09/29 10:50:38;;;;;;;1.10;1.00;;;24.70;66.40;;;;;;5098277;28;20448;-90
2022/09/29 10:53:19;;;;;;;1.30;1.20;;;24.70;66.50;;;;;;5095665;28;20804;-94
2022/09/29 10:55:50;;;;;;;1.10;1.00;;;24.80;66.50;;;;;;5095699;28;20436;-90
2022/09/29 10:58:24;;;;;;;1.37;1.00;;;24.80;66.60;;;;;;5098343;28;20481;-90
2022/09/29 11:01:06;;;;;;;1.17;1.00;;;24.80;66.60;;;;;;5095272;28;20800;-87
2022/09/29 11:03:35;;;;;;;1.17;1.07;;;24.90;66.60;;;;;;5095334;28;20436;-87
2022/09/29 11:06:07;;;;;;;1.27;1.17;;;24.90;66.80;;;;;;5095246;28;20463;-92
2022/09/29 11:08:51;;;;;;;1.07;0.97;;;25.00;66.90;;;;;;5095221;28;20436;-86
2022/09/29 11:11:23;;;;;;;1.03;0.93;;;25.00;66.80;;;;;;5106490;28;20464;-95
2022/09/29 11:13:51;;;;;;;1.13;1.00;;;25.10;67.00;;;;;;5082377;28;20452;-95
2022/09/29 11:16:23;;;;;;;1.40;1.30;;;25.10;67.00;;;;;;5095875;28;20452;-94
2022/09/29 11:18:53;;;;;;;1.30;1.10;;;25.10;66.90;;;;;;5103045;28;20497;-96
2022/09/29 11:21:57;;;;;;;1.10;1.00;;;25.10;67.00;;;;;;5115818;28;20428;-94
2022/09/29 11:24:46;;;;;;;1.17;1.07;;;25.20;67.00;;;;;;5080368;28;20444;-96
2022/09/29 11:27:27;;;;;;;1.70;0.90;;;25.20;67.20;;;;;;5109815;28;20475;-92
2022/09/29 11:30:01;;;;;;;1.10;1.00;;;25.20;67.20;;;;;;5080894;28;20942;-93
2022/09/29 11:32:44;;;;;;;1.27;1.17;;;25.20;67.20;;;;;;5090910;28;20454;-90
2022/09/29 11:35:29;;;;;;;1.00;0.90;;;25.30;67.30;;;;;;5077981;28;20455;-94
2022/09/29 11:38:49;;;;;;;1.30;1.20;;;25.30;67.30;;;;;;5110888;22;20488;-96
2022/09/29 11:41:38;;;;;;;1.00;0.90;;;25.30;67.30;;;;;;5173406;22;20469;-91
2022/09/29 11:44:18;;;;;;;1.10;1.00;;;25.30;67.40;;;;;;5118891;22;20539;-88
2022/09/29 11:54:46;;;;;;;1.97;0.80;;;25.30;67.20;;;;;;5127065;22;20498;-94
2022/09/29 11:57:26;;;;;;;1.00;0.90;;;25.40;67.20;;;;;;5118481;22;20487;-91
2022/09/29 12:00:05;;;;;;;1.10;1.00;;;25.40;67.30;;;;;;5109346;28;20432;-95
2022/09/29 12:05:11;;;;;;;0.87;0.80;;;25.20;67.40;;;;;;5106985;28;20476;-96
2022/09/29 12:07:48;;;;;;;1.10;0.90;;;25.30;67.50;;;;;;5111380;28;20462;-96
2022/09/29 12:10:37;;;;;;;1.00;0.90;;;25.20;67.20;;;;;;5101079;22;20525;-95
2022/09/29 12:13:17;;;;;;;1.00;0.80;;;25.20;67.30;;;;;;5074856;28;20455;-95
2022/09/29 12:15:52;;;;;;;1.30;1.20;;;25.30;67.60;;;;;;5081735;28;20467;-92
2022/09/29 12:18:24;;;;;;;1.17;1.07;;;25.10;67.40;;;;;;5069428;28;20468;-96
2022/09/29 12:20:54;;;;;;;0.90;0.80;;;25.10;67.40;;;;;;5069102;28;20457;-96
2022/09/29 12:23:24;;;;;;;1.30;0.97;;;25.00;67.50;;;;;;5066218;28;20430;-96
2022/09/29 12:25:59;;;;;;;1.33;1.00;;;25.00;67.40;;;;;;5060253;28;20442;-89
2022/09/29 12:31:49;;;;;;;2.10;1.00;;;25.10;67.70;;;;;;5061184;28;20935;-94
2022/09/29 12:34:20;;;;;;;1.03;0.87;;;25.10;68.00;;;;;;5071645;28;20461;-96
2022/09/29 12:36:52;;;;;;;1.00;0.90;;;24.90;67.70;;;;;;5055581;28;20925;-88
2022/09/29 12:39:33;;;;;;;1.20;1.10;;;24.90;67.50;;;;;;5053518;28;20523;-89
2022/09/29 12:42:13;;;;;;;1.10;0.80;;;25.00;67.50;;;;;;5052817;28;20449;-88
2022/09/29 12:44:47;;;;;;;1.37;1.20;;;25.00;67.60;;;;;;5052900;28;20972;-88
2022/09/29 12:47:23;;;;;;;1.10;1.00;;;25.10;67.70;;;;;;5053123;28;20442;-89
2022/09/29 12:50:00;;;;;;;0.90;0.80;;;25.00;67.60;;;;;;5052778;28;20519;-88
2022/09/29 12:52:39;;;;;;;0.90;0.80;;;24.90;67.60;;;;;;5053119;28;20904;-89
2022/09/29 12:55:17;;;;;;;1.77;0.80;;;24.90;67.60;;;;;;5053323;28;20466;-91
2022/09/29 12:57:48;;;;;;;0.80;0.70;;;24.90;67.50;;;;;;5053414;28;20457;-93
2022/09/29 13:00:17;;;;;;;1.10;1.00;;;24.90;67.60;;;;;;5053038;28;20541;-90
2022/09/29 13:03:18;;;;;;;1.00;0.80;;;24.90;67.70;;;;;;5060063;28;20453;-91
2022/09/29 13:06:11;;;;;;;1.10;1.00;;;24.90;67.70;;;;;;5055314;28;20452;-90
2022/09/29 13:09:01;;;;;;;0.80;0.80;;;24.80;67.70;;;;;;5052934;28;20475;-90
2022/09/29 13:11:55;;;;;;;1.00;0.90;;;24.80;67.80;;;;;;5051942;28;20531;-94
2022/09/29 13:14:50;;;;;;;0.97;0.87;;;24.80;67.80;;;;;;5052439;28;20812;-93
2022/09/29 13:17:29;;;;;;;0.97;0.80;;;25.00;67.90;;;;;;5052555;28;20438;-95
2022/09/29 13:20:21;;;;;;;1.10;1.00;;;24.90;68.70;;;;;;5052921;28;20496;-95
2022/09/29 13:23:24;;;;;;;1.57;1.00;;;24.90;67.90;;;;;;5054332;28;20426;-95
2022/09/29 13:26:12;;;;;;;0.80;0.80;;;24.90;68.10;;;;;;5058608;28;20410;-95
2022/09/29 13:28:43;;;;;;;1.00;0.90;;;25.00;68.30;;;;;;5054532;28;20461;-93
2022/09/29 13:31:16;;;;;;;4.20;0.87;;;24.90;68.00;;;;;;5051986;28;20434;-89
2022/09/29 13:33:48;;;;;;;2.43;1.40;;;24.80;66.30;;;;;;5051781;28;20445;-93